createdAt,value
2024-04-30T08:05:22.758Z,101920.02
2024-04-30T08:07:50.186Z,101914.93
2024-04-30T08:10:17.469Z,101914.02
2024-04-30T08:12:44.595Z,101916.15
2024-04-30T08:15:11.735Z,101913.35
2024-04-30T08:17:39.081Z,101910.75
2024-04-30T08:20:07.085Z,101910.80
2024-04-30T08:22:34.351Z,101911.88
2024-04-30T08:25:01.494Z,101911.95
2024-04-30T08:27:28.642Z,101910.64
2024-04-30T08:29:55.738Z,101908.23
2024-04-30T08:32:23.360Z,101907.44
2024-04-30T08:34:50.491Z,101909.80
2024-04-30T08:37:17.692Z,101909.75
2024-04-30T08:39:44.927Z,101906.26
2024-04-30T08:42:12.056Z,101902.96
2024-04-30T08:44:39.188Z,101905.92
2024-04-30T08:47:06.502Z,101908.45
2024-04-30T08:49:42.629Z,101903.95
2024-04-30T08:52:14.382Z,101900.73
2024-04-30T08:54:42.379Z,101892.65
2024-04-30T08:57:09.475Z,101894.17
2024-04-30T08:59:38.526Z,101892.42
2024-04-30T09:02:05.883Z,101893.70
2024-04-30T09:04:33.185Z,101891.09
2024-04-30T09:07:00.326Z,101883.95
2024-04-30T09:09:27.550Z,101882.05
2024-04-30T09:11:54.854Z,101881.81
2024-04-30T09:14:22.030Z,101879.77
2024-04-30T09:16:50.135Z,101877.46
2024-04-30T09:19:28.271Z,101876.98
2024-04-30T09:22:05.765Z,101872.64
2024-04-30T09:24:33.501Z,101870.45
2024-04-30T09:27:00.884Z,101867.36
2024-04-30T09:29:35.372Z,101867.98
2024-04-30T09:32:03.004Z,101861.52
2024-04-30T09:34:42.748Z,101855.20
2024-04-30T09:37:23.330Z,101853.02
2024-04-30T09:39:58.150Z,101849.73
2024-04-30T09:42:26.992Z,101842.55
2024-04-30T09:44:57.210Z,101844.83
2024-04-30T09:47:25.105Z,101844.85
2024-04-30T09:49:53.628Z,101841.28
2024-04-30T09:52:21.280Z,101837.24
2024-04-30T09:54:48.467Z,101835.80
2024-04-30T09:57:15.981Z,101837.03
2024-04-30T09:59:43.160Z,101835.45
2024-04-30T10:02:12.003Z,101835.02
2024-04-30T10:04:39.217Z,101834.91
2024-04-30T10:07:06.502Z,101834.42
2024-04-30T10:09:33.618Z,101832.71
2024-04-30T10:12:00.719Z,101827.72
2024-04-30T10:14:31.743Z,101818.75
2024-04-30T10:17:00.243Z,101818.84
2024-04-30T10:19:27.916Z,101825.14
2024-04-30T10:21:55.070Z,101824.35
2024-04-30T10:24:22.949Z,101821.10
2024-04-30T10:26:50.923Z,101822.25
2024-04-30T10:41:02.697Z,101808.79
2024-04-30T10:43:29.796Z,101809.74
2024-04-30T10:46:15.989Z,101811.45
2024-04-30T10:48:49.922Z,101808.48
2024-04-30T10:51:17.820Z,101802.23
2024-04-30T10:53:44.555Z,101796.96
2024-04-30T10:56:12.617Z,101793.47
2024-04-30T10:58:50.743Z,101792.05
2024-04-30T11:01:24.296Z,101791.41
2024-04-30T11:04:11.163Z,101793.02
2024-04-30T11:20:20.395Z,101773.02
2024-04-30T11:22:47.644Z,101767.83
2024-04-30T11:25:14.807Z,101763.52
2024-04-30T11:27:41.997Z,101764.88
2024-04-30T11:30:09.539Z,101765.98
2024-04-30T11:32:36.774Z,101762.19
2024-04-30T11:35:04.442Z,101762.67
2024-04-30T11:37:31.711Z,101761.48
2024-04-30T11:39:58.903Z,101755.15
2024-04-30T11:42:31.235Z,101751.41
2024-04-30T11:45:03.736Z,101743.99
2024-04-30T11:47:31.508Z,101741.30
2024-04-30T11:49:58.731Z,101738.73
2024-04-30T11:52:26.069Z,101731.06
2024-04-30T11:54:53.225Z,101727.13
2024-04-30T11:57:20.347Z,101724.75
2024-04-30T11:59:47.454Z,101725.22
2024-04-30T12:02:14.892Z,101722.48
2024-04-30T12:04:42.376Z,101711.46
2024-04-30T12:07:09.927Z,101716.42
2024-04-30T12:09:37.217Z,101719.19
2024-04-30T12:12:04.754Z,101715.05
2024-04-30T12:14:31.965Z,101703.71
2024-04-30T12:16:59.377Z,101697.98
2024-04-30T12:19:26.563Z,101689.20
2024-04-30T12:21:53.661Z,101694.76
2024-04-30T12:24:21.051Z,101692.23
2024-04-30T12:26:48.204Z,101688.85
2024-04-30T12:29:15.314Z,101686.49
2024-04-30T12:31:42.752Z,101683.69
2024-04-30T12:34:10.291Z,101676.11
2024-04-30T12:36:38.439Z,101672.70
2024-04-30T12:39:05.609Z,101670.20
2024-04-30T12:41:38.061Z,101664.25
2024-04-30T12:44:05.735Z,101661.17
2024-04-30T12:46:33.224Z,101655.79
2024-04-30T12:49:00.429Z,101648.36
2024-04-30T12:51:27.803Z,101644.20
2024-04-30T12:53:56.218Z,101639.23
2024-04-30T12:56:23.628Z,101637.20
2024-04-30T12:58:50.890Z,101636.46
2024-04-30T13:01:20.635Z,101636.49
2024-04-30T13:03:51.640Z,101634.39
2024-04-30T13:06:19.026Z,101633.46
2024-04-30T13:08:46.285Z,101628.54
2024-04-30T13:11:14.165Z,101623.66
2024-04-30T13:13:41.550Z,101620.85
2024-04-30T13:16:09.832Z,101616.04
2024-04-30T13:18:37.032Z,101612.04
2024-04-30T13:21:04.460Z,101610.88
2024-04-30T13:23:35.440Z,101607.49
2024-04-30T13:26:02.578Z,101603.38
2024-04-30T13:28:30.031Z,101599.04
2024-04-30T13:30:57.345Z,101593.91
2024-04-30T13:33:24.749Z,101588.84
2024-04-30T13:35:52.227Z,101586.31
2024-04-30T13:38:19.354Z,101580.38
2024-04-30T13:40:46.645Z,101578.76
2024-04-30T13:43:14.086Z,101580.81
2024-04-30T13:45:41.315Z,101574.14
2024-04-30T13:48:08.628Z,101577.05
2024-04-30T13:50:35.929Z,101573.84
2024-04-30T13:53:03.290Z,101573.81
2024-04-30T13:55:32.891Z,101569.10
2024-04-30T13:58:01.193Z,101567.36
2024-04-30T14:00:28.312Z,101559.44
2024-04-30T14:02:55.593Z,101549.77
2024-04-30T14:05:25.234Z,101551.05
2024-04-30T14:07:53.730Z,101550.13
2024-04-30T14:10:20.965Z,101549.90
2024-04-30T14:12:48.849Z,101549.02
2024-04-30T14:15:16.538Z,101546.95
2024-04-30T14:17:43.949Z,101545.97
2024-04-30T14:20:11.059Z,101543.80
2024-04-30T14:22:38.357Z,101541.02
2024-04-30T14:25:06.247Z,101537.91
2024-04-30T14:27:33.780Z,101537.77
2024-04-30T14:30:01.105Z,101534.76
2024-04-30T14:32:28.707Z,101530.00
2024-04-30T14:34:56.141Z,101529.34
2024-04-30T14:37:23.417Z,101519.10
2024-04-30T14:39:52.362Z,101518.63
2024-04-30T14:42:19.556Z,101518.98
2024-04-30T14:44:48.955Z,101515.98
2024-04-30T14:47:16.203Z,101511.02
2024-04-30T14:49:43.559Z,101511.58
2024-04-30T14:52:10.739Z,101504.33
2024-04-30T14:54:40.362Z,101497.73
2024-04-30T14:57:07.471Z,101495.45
2024-04-30T14:59:34.618Z,101489.81
2024-04-30T15:02:01.971Z,101484.92
2024-04-30T15:04:29.358Z,101483.89
2024-04-30T15:06:56.612Z,101481.42
2024-04-30T15:09:23.707Z,101476.36
2024-04-30T15:11:50.976Z,101475.48
2024-04-30T15:14:18.114Z,101472.14
2024-04-30T15:16:45.430Z,101469.21
2024-04-30T15:19:12.849Z,101467.19
2024-04-30T15:21:44.000Z,101460.80
2024-04-30T15:24:11.133Z,101459.50
2024-04-30T15:26:38.949Z,101457.35
2024-04-30T15:29:06.233Z,101453.71
2024-04-30T15:31:33.931Z,101452.98
2024-04-30T15:34:01.375Z,101450.29
2024-04-30T15:36:28.457Z,101448.86
2024-04-30T15:38:55.620Z,101447.45
2024-04-30T15:41:23.173Z,101444.59
2024-04-30T15:43:50.463Z,101438.34
2024-04-30T15:46:17.718Z,101438.34
2024-04-30T15:48:45.545Z,101438.30
2024-04-30T15:51:13.966Z,101436.23
2024-04-30T15:53:41.118Z,101435.92
2024-04-30T15:56:19.478Z,101436.27
2024-04-30T15:58:48.086Z,101431.12
2024-04-30T16:01:15.502Z,101429.23
2024-04-30T16:03:42.753Z,101434.02
2024-04-30T16:06:10.044Z,101436.73
2024-04-30T16:08:37.423Z,101437.02
2024-04-30T16:11:09.684Z,101437.67
2024-04-30T16:13:39.363Z,101436.35
2024-04-30T16:16:12.551Z,101434.15
2024-04-30T16:18:46.709Z,101433.94
2024-04-30T16:21:14.659Z,101431.33
2024-04-30T16:23:41.928Z,101428.88
2024-04-30T16:26:09.296Z,101424.60
2024-04-30T16:28:36.626Z,101419.56
2024-04-30T16:31:04.297Z,101416.79
2024-04-30T16:33:32.015Z,101416.96
2024-04-30T16:35:59.404Z,101417.97
2024-04-30T16:38:26.732Z,101418.88
2024-04-30T16:40:55.528Z,101417.59
2024-04-30T16:43:22.698Z,101419.23
2024-04-30T16:45:50.285Z,101423.34
2024-04-30T16:48:17.711Z,101417.42
2024-04-30T16:50:45.048Z,101420.45
2024-04-30T16:53:12.231Z,101420.85
2024-04-30T16:55:39.334Z,101421.31
2024-04-30T16:58:06.446Z,101423.97
2024-04-30T17:00:33.706Z,101422.67
2024-04-30T17:03:01.081Z,101416.63
2024-04-30T17:05:28.274Z,101420.65
2024-04-30T17:07:55.442Z,101423.92
2024-04-30T17:10:22.557Z,101422.65
2024-04-30T17:12:49.962Z,101420.37
2024-04-30T17:15:17.295Z,101424.67
2024-04-30T17:17:44.634Z,101427.92
2024-04-30T17:20:11.902Z,101423.82
2024-04-30T17:22:39.350Z,101420.42
2024-04-30T17:25:07.573Z,101423.62
2024-04-30T17:27:34.883Z,101421.73
2024-04-30T17:30:02.107Z,101423.10
2024-04-30T17:32:29.364Z,101419.83
2024-04-30T17:34:56.639Z,101417.85
2024-04-30T17:37:23.821Z,101418.38
2024-04-30T17:39:51.079Z,101420.30
2024-04-30T17:42:18.378Z,101426.38
2024-04-30T17:44:45.542Z,101428.48
2024-04-30T17:47:12.736Z,101431.77
2024-04-30T17:49:40.032Z,101441.23
2024-04-30T17:52:07.126Z,101442.59
2024-04-30T17:54:34.693Z,101444.54
2024-04-30T17:57:02.142Z,101448.06
2024-04-30T17:59:29.422Z,101449.20
2024-04-30T18:01:56.885Z,101455.65
2024-04-30T18:04:24.112Z,101450.30
2024-04-30T18:06:51.364Z,101448.68
2024-04-30T18:09:18.581Z,101451.79
2024-04-30T18:11:45.760Z,101454.48
2024-04-30T18:14:12.982Z,101456.14
2024-04-30T18:16:40.172Z,101457.30
2024-04-30T18:19:08.510Z,101460.55
2024-04-30T18:21:37.412Z,101458.70
2024-04-30T18:24:06.761Z,101457.65
2024-04-30T18:26:40.760Z,101456.27
2024-04-30T18:29:08.075Z,101454.32
2024-04-30T18:31:35.331Z,101455.86
2024-04-30T18:34:03.089Z,101457.34
2024-04-30T18:36:30.396Z,101453.77
2024-04-30T18:38:57.799Z,101452.76
2024-04-30T18:41:30.936Z,101450.51
2024-04-30T18:43:58.781Z,101451.23
2024-04-30T18:46:25.956Z,101448.10
2024-04-30T18:48:53.354Z,101446.14
2024-04-30T18:51:20.952Z,101450.54
2024-04-30T18:53:49.244Z,101450.30
2024-04-30T18:56:17.553Z,101448.98
2024-04-30T18:58:45.861Z,101448.04
2024-04-30T19:01:13.465Z,101446.70
2024-04-30T19:03:40.886Z,101445.66
2024-04-30T19:06:09.065Z,101447.10
2024-04-30T19:08:36.316Z,101443.14
2024-04-30T19:11:04.444Z,101440.70
2024-04-30T19:13:31.837Z,101435.70
2024-04-30T19:16:02.885Z,101434.14
2024-04-30T19:18:30.485Z,101436.83
2024-04-30T19:20:57.943Z,101429.87
2024-04-30T19:23:29.213Z,101435.80
2024-04-30T19:25:56.605Z,101437.92
2024-04-30T19:28:23.806Z,101432.80
2024-04-30T19:30:52.606Z,101434.77
2024-04-30T19:33:19.942Z,101430.20
2024-04-30T19:35:50.469Z,101430.94
2024-04-30T19:38:18.029Z,101430.38
2024-04-30T19:40:45.992Z,101428.55
2024-04-30T19:43:14.104Z,101427.73
2024-04-30T19:45:41.760Z,101428.04
2024-04-30T19:48:12.982Z,101426.45
2024-04-30T19:50:42.905Z,101420.30
2024-04-30T19:53:10.009Z,101424.04
2024-04-30T19:55:37.194Z,101416.69
2024-04-30T19:58:04.458Z,101416.38
2024-04-30T20:00:31.929Z,101417.21
2024-04-30T20:02:59.237Z,101414.66
2024-04-30T20:05:26.473Z,101414.56
2024-04-30T20:07:53.639Z,101416.69
2024-04-30T20:10:21.228Z,101420.36
2024-04-30T20:12:48.734Z,101417.45
2024-04-30T20:15:16.224Z,101417.52
2024-04-30T20:17:43.350Z,101414.65
2024-04-30T20:20:10.621Z,101411.27
2024-04-30T20:22:38.048Z,101411.08
2024-04-30T20:25:05.957Z,101409.95
2024-04-30T20:27:33.118Z,101408.33
2024-04-30T20:30:00.260Z,101411.77
2024-04-30T20:32:27.442Z,101409.78
2024-04-30T20:34:54.575Z,101411.70
2024-04-30T20:37:21.656Z,101413.65
2024-04-30T20:39:48.833Z,101409.54
2024-04-30T20:42:17.718Z,101409.17
2024-04-30T20:44:46.064Z,101409.13
2024-04-30T20:47:13.163Z,101409.92
2024-04-30T20:49:40.340Z,101409.81
2024-04-30T20:52:07.539Z,101414.20
2024-04-30T20:54:34.836Z,101413.73
2024-04-30T20:57:02.059Z,101410.23
2024-04-30T20:59:29.203Z,101407.66
2024-04-30T21:01:56.524Z,101409.75
2024-04-30T21:04:23.944Z,101411.75
2024-04-30T21:06:51.207Z,101408.27
2024-04-30T21:09:18.392Z,101407.38
2024-04-30T21:11:46.751Z,101406.96
2024-04-30T21:14:13.875Z,101416.86
2024-04-30T21:16:41.218Z,101415.69
2024-04-30T21:19:11.421Z,101415.61
2024-04-30T21:21:41.802Z,101418.02
2024-04-30T21:24:12.420Z,101421.16
2024-04-30T21:26:42.932Z,101419.19
2024-04-30T21:29:10.330Z,101423.59
2024-04-30T21:31:37.408Z,101421.62
2024-04-30T21:34:04.499Z,101420.71
2024-04-30T21:36:32.056Z,101423.98
2024-04-30T21:38:59.227Z,101422.52
2024-04-30T21:41:26.453Z,101419.70
2024-04-30T21:43:53.617Z,101418.99
2024-04-30T21:46:20.719Z,101415.13
2024-04-30T21:48:47.878Z,101415.95
2024-04-30T21:51:18.940Z,101414.31
2024-04-30T21:53:46.068Z,101413.36
2024-04-30T21:56:13.191Z,101407.19
2024-04-30T21:58:40.364Z,101406.98
2024-04-30T22:01:10.740Z,101402.08
2024-04-30T22:03:40.061Z,101398.82
2024-04-30T22:06:07.602Z,101399.75
2024-04-30T22:08:35.798Z,101401.84
2024-04-30T22:11:03.211Z,101398.12
2024-04-30T22:13:30.394Z,101394.56
2024-04-30T22:15:59.377Z,101392.48
2024-04-30T22:18:27.198Z,101392.45
2024-04-30T22:20:54.406Z,101385.17
2024-04-30T22:23:21.774Z,101387.88
2024-04-30T22:25:48.887Z,101386.77
2024-04-30T22:28:16.084Z,101386.86
2024-04-30T22:30:43.236Z,101390.42
2024-04-30T22:33:10.556Z,101389.64
2024-04-30T22:35:37.778Z,101386.06
2024-04-30T22:38:05.002Z,101387.08
2024-04-30T22:40:32.149Z,101387.25
2024-04-30T22:42:59.342Z,101384.29
2024-04-30T22:45:26.487Z,101383.52
2024-04-30T22:47:53.675Z,101380.98
2024-04-30T22:50:20.866Z,101377.33
2024-04-30T22:52:48.029Z,101376.80
2024-04-30T22:55:15.148Z,101374.20
2024-04-30T22:57:42.320Z,101373.79
2024-04-30T23:00:09.879Z,101371.11
2024-04-30T23:02:37.311Z,101373.01
2024-04-30T23:05:08.954Z,101374.38
2024-04-30T23:07:36.307Z,101373.64
2024-04-30T23:10:04.493Z,101369.71
2024-04-30T23:12:32.264Z,101368.18
2024-04-30T23:14:59.610Z,101367.18
2024-04-30T23:17:26.771Z,101363.75
2024-04-30T23:19:53.876Z,101362.12
2024-04-30T23:22:24.085Z,101355.63
2024-04-30T23:24:51.291Z,101355.08
2024-04-30T23:27:21.550Z,101357.30
2024-04-30T23:29:48.878Z,101357.21
2024-04-30T23:32:16.289Z,101354.27
2024-04-30T23:34:43.416Z,101347.98
2024-04-30T23:37:10.634Z,101351.23
2024-04-30T23:39:37.893Z,101345.95
2024-04-30T23:42:08.683Z,101349.61
2024-04-30T23:44:36.396Z,101350.38
2024-04-30T23:47:03.952Z,101346.97
2024-04-30T23:49:31.297Z,101344.41
2024-04-30T23:51:58.893Z,101344.66
2024-04-30T23:54:27.226Z,101345.20
2024-04-30T23:56:54.588Z,101343.86
2024-04-30T23:59:22.505Z,101341.65
